Pagrindinis puslapis
METAR-TAF:

METAR-TAF

Oro uostai :

Jonšiopingas, Švedija

platuma: 57-46N, ilguma: 014-05E, Aukštis: 226 m

Dabartinis oras

Ataskaita buvo paskelbta 12 minutes, ne 03:50 UTC
Vėjas 9 kt iš Vakarų/Pietvakarių
Temperatūra 11°C
Drėgmė 100%
Slėgis 1013 hPa
Matomumas 10 km arba daugiau

METAR: ESGJ 060350Z AUTO 24009KT 9999 BKN008/// OVC011/// 11/11 Q1013

Laikas: 06:02 (04:02 UTC)

Prognozė

Ataskaita buvo paskelbta 32 minutes, ne 03:30 UTC
Prognozė galioja nuo 06 metu 04 UTC su 06 metu 12 UTC
Vėjas 10 kt iš Vakarų/Pietvakarių
Matomumas 10 km arba daugiau
Su prošvaistėmis ne aukštis 900 ft
Tapsmas
nuo 06 metu 04 UTC su 06 metu 06 UTC
Matomumas 10 km arba daugiau
nėra debesų žemiau 1500 m ir nėra kamuolinių lietaus debesų

TAF: ESGJ 060330Z 0604/0612 25010KT 9999 BKN009 BECMG 0604/0606 CAVOK

Orai ataskaitas ir orų prognozės (METAR, TAF).

turimą stotys yra geltonos ir raudonos taškus žemėlapyje.

Perkelti pele per norėdami pamatyti stoties vardą.

Tada spustelėkite, norėdami matyti oro stebėjimo ir prognozės.

Norėdami pakeisti žemėlapį: spustelėkite ant žalios mygtukų su juodo kryžiaus žemyn,; žalią mygtuką su brūkšneliu, jei norite nutolinti; arba žalių rodyklių gretimoms žemėlapius.


METAR-TAF: